Time;durP1;ratioP1;P1;durP2;ratioP2;P2;SDS_P1;SDS_P2;PMS_P1;PMS_P2;Temp;Humidity;BMP_temperature;BMP_pressure;BME280_temperature;BME280_humidity;BME280_pressure;Samples;Min_cycle;Max_cycle;Signal;HPM_P1;HPM_P2
2022/01/31 00:00:46;;;;;;;;;;;9.60;48.30;;;;;;5000768;28;20318;-93
2022/01/31 00:03:12;;;;;;;;;;;9.60;48.30;;;;;;4982217;28;19910;-93
2022/01/31 00:05:37;;;;;;;;;;;9.60;48.40;;;;;;4982281;28;19918;-93
2022/01/31 00:08:03;;;;;;;;;;;9.70;48.40;;;;;;4982641;28;19910;-92
2022/01/31 00:10:31;;;;;;;;;;;9.70;48.30;;;;;;5000271;28;20271;-92
2022/01/31 00:13:07;;;;;;;;;;;9.70;48.30;;;;;;5005361;28;19913;-93
2022/01/31 00:15:38;;;;;;;;;;;9.70;48.20;;;;;;4999251;28;20009;-92
2022/01/31 00:18:04;;;;;;;;;;;9.70;48.20;;;;;;4984853;28;19960;-93
2022/01/31 00:20:29;;;;;;;;;;;9.70;48.20;;;;;;4981775;28;19925;-94
2022/01/31 00:22:55;;;;;;;;;;;9.70;48.20;;;;;;4990456;28;19910;-92
2022/01/31 00:25:20;;;;;;;;;;;9.70;48.10;;;;;;4984372;28;19964;-93
2022/01/31 00:27:47;;;;;;;;;;;9.80;48.00;;;;;;4982693;28;19976;-93
2022/01/31 00:30:13;;;;;;;;;;;9.80;48.00;;;;;;4982380;28;20250;-92
2022/01/31 00:32:38;;;;;;;;;;;9.80;48.00;;;;;;4982244;28;19949;-94
2022/01/31 00:35:04;;;;;;;;;;;9.80;47.90;;;;;;5003053;28;19940;-93
2022/01/31 00:37:29;;;;;;;;;;;9.80;47.90;;;;;;4985397;28;19925;-93
2022/01/31 00:39:55;;;;;;;;;;;9.80;47.90;;;;;;5003412;28;20358;-93
2022/01/31 00:42:26;;;;;;;;;;;9.80;47.90;;;;;;5004770;28;19917;-93
2022/01/31 00:44:55;;;;;;;;;;;9.80;47.90;;;;;;4986451;28;19922;-94
2022/01/31 00:47:26;;;;;;;;;;;9.80;47.90;;;;;;5003388;28;19921;-93
2022/01/31 00:50:02;;;;;;;;;;;9.80;47.90;;;;;;4986551;28;19925;-94
2022/01/31 00:52:28;;;;;;;;;;;9.80;47.90;;;;;;4985542;28;20290;-93
2022/01/31 00:54:53;;;;;;;;;;;9.80;47.80;;;;;;4985938;28;19902;-94
2022/01/31 00:57:19;;;;;;;;;;;9.80;47.90;;;;;;4987389;28;20329;-94
2022/01/31 00:59:44;;;;;;;;;;;9.80;47.80;;;;;;4986342;28;19928;-94
2022/01/31 01:02:10;;;;;;;;;;;9.80;48.10;;;;;;5004000;28;19945;-93
2022/01/31 01:04:35;;;;;;;;;;;9.80;48.30;;;;;;5003810;28;19961;-94
2022/01/31 01:07:01;;;;;;;;;;;9.80;48.50;;;;;;4985128;28;20279;-93
2022/01/31 01:09:27;;;;;;;;;;;9.70;49.00;;;;;;5003873;28;19922;-93
2022/01/31 01:11:53;;;;;;;;;;;9.70;49.20;;;;;;4967603;28;19928;-92
2022/01/31 01:14:18;;;;;;;;;;;9.60;49.40;;;;;;4983636;28;20373;-94
2022/01/31 01:16:44;;;;;;;;;;;9.50;49.60;;;;;;4985619;28;19914;-94
2022/01/31 01:19:09;;;;;;;;;;;9.50;49.80;;;;;;4985721;28;20004;-94
2022/01/31 01:21:34;;;;;;;;;;;9.50;49.70;;;;;;5003483;28;19910;-93
2022/01/31 01:24:00;;;;;;;;;;;9.50;49.90;;;;;;4985011;28;19921;-93
2022/01/31 01:26:26;;;;;;;;;;;9.50;49.80;;;;;;4984991;28;20004;-95
2022/01/31 01:28:51;;;;;;;;;;;9.60;49.80;;;;;;4985313;28;19921;-92
2022/01/31 01:31:19;;;;;;;;;;;9.60;50.00;;;;;;4984032;28;19917;-92
2022/01/31 01:33:45;;;;;;;;;;;9.60;49.90;;;;;;5000674;28;20008;-93
2022/01/31 01:36:10;;;;;;;;;;;9.60;49.90;;;;;;4984478;28;20381;-94
2022/01/31 01:38:36;;;;;;;;;;;9.60;49.70;;;;;;4983944;28;19953;-93
2022/01/31 01:41:01;;;;;;;;;;;9.60;49.90;;;;;;5002727;28;19933;-94
2022/01/31 01:43:29;;;;;;;;;;;9.70;49.80;;;;;;4986861;28;19914;-94
2022/01/31 01:45:55;;;;;;;;;;;9.70;49.70;;;;;;4986136;28;20360;-93
2022/01/31 01:48:21;;;;;;;;;;;9.80;49.80;;;;;;4986703;28;19921;-94
2022/01/31 01:50:46;;;;;;;;;;;9.80;49.80;;;;;;4986322;28;19919;-93
2022/01/31 01:53:12;;;;;;;;;;;9.80;49.60;;;;;;4985204;28;19913;-92
2022/01/31 01:55:38;;;;;;;;;;;9.80;49.50;;;;;;4984067;28;19925;-93
2022/01/31 01:58:05;;;;;;;;;;;9.80;49.40;;;;;;5001107;28;19914;-94
2022/01/31 02:00:49;;;;;;;;;;;9.90;49.20;;;;;;4984904;28;19969;-93
2022/01/31 02:03:14;;;;;;;;;;;9.90;49.10;;;;;;5003693;28;19920;-94
2022/01/31 02:05:40;;;;;;;;;;;10.00;49.20;;;;;;4986022;28;19918;-94
2022/01/31 02:08:05;;;;;;;;;;;10.00;49.10;;;;;;4986389;28;19910;-94
2022/01/31 02:10:31;;;;;;;;;;;10.00;49.00;;;;;;4985583;28;19929;-94
2022/01/31 02:13:02;;;;;;;;;;;10.00;48.90;;;;;;5003394;28;19914;-93
2022/01/31 02:15:28;;;;;;;;;;;10.10;49.00;;;;;;4985427;28;19925;-93
2022/01/31 02:17:53;;;;;;;;;;;10.10;49.00;;;;;;5001500;28;19937;-94
2022/01/31 02:20:18;;;;;;;;;;;10.10;48.70;;;;;;5000813;28;19918;-94
2022/01/31 02:22:46;;;;;;;;;;;10.10;48.60;;;;;;4987245;28;20432;-92
2022/01/31 02:25:12;;;;;;;;;;;10.10;48.40;;;;;;4985294;28;19910;-94
2022/01/31 02:27:38;;;;;;;;;;;10.10;48.30;;;;;;4985646;28;19941;-94
2022/01/31 02:30:09;;;;;;;;;;;10.20;48.40;;;;;;4985724;28;20005;-93
2022/01/31 02:32:35;;;;;;;;;;;10.20;48.40;;;;;;4995726;28;19917;-93
2022/01/31 02:35:00;;;;;;;;;;;10.20;48.20;;;;;;4984292;28;20016;-94
2022/01/31 02:37:26;;;;;;;;;;;10.10;48.10;;;;;;4981131;28;19922;-94
2022/01/31 02:39:51;;;;;;;;;;;10.20;48.10;;;;;;4982021;28;19921;-94
2022/01/31 02:42:17;;;;;;;;;;;10.20;48.10;;;;;;4996759;28;19972;-94
2022/01/31 02:44:46;;;;;;;;;;;10.20;48.00;;;;;;4984665;28;19957;-94
2022/01/31 02:47:16;;;;;;;;;;;10.20;48.00;;;;;;4985325;28;19918;-94
2022/01/31 02:49:53;;;;;;;;;;;10.20;48.00;;;;;;5002270;28;19914;-94
2022/01/31 02:52:19;;;;;;;;;;;10.20;47.90;;;;;;4984997;28;19949;-94
2022/01/31 02:54:44;;;;;;;;;;;10.20;47.90;;;;;;4983731;28;19921;-94
2022/01/31 02:57:10;;;;;;;;;;;10.30;47.90;;;;;;4983205;28;20009;-93
2022/01/31 02:59:36;;;;;;;;;;;10.30;47.90;;;;;;4983361;28;19968;-94
2022/01/31 03:02:01;;;;;;;;;;;10.30;47.90;;;;;;4985074;28;19921;-94
2022/01/31 03:04:27;;;;;;;;;;;10.30;48.00;;;;;;4984304;28;19918;-93
2022/01/31 03:06:53;;;;;;;;;;;10.20;47.90;;;;;;4982936;28;19976;-92
2022/01/31 03:09:18;;;;;;;;;;;10.30;48.30;;;;;;4984067;28;19922;-93
2022/01/31 03:11:44;;;;;;;;;;;10.30;48.90;;;;;;4984128;28;19918;-93
2022/01/31 03:14:10;;;;;;;;;;;10.10;50.30;;;;;;4983974;28;19971;-93
2022/01/31 03:16:40;;;;;;;;;;;10.00;51.90;;;;;;4983923;28;20332;-91
2022/01/31 03:19:09;;;;;;;;;;;9.90;53.20;;;;;;4983419;28;19921;-93
2022/01/31 03:21:34;;;;;;;;;;;9.80;54.10;;;;;;4984523;28;19920;-93
2022/01/31 03:24:00;;;;;;;;;;;9.70;55.10;;;;;;4984446;28;20013;-93
2022/01/31 03:26:25;;;;;;;;;;;9.50;56.50;;;;;;4983444;28;19918;-94
2022/01/31 03:28:53;;;;;;;;;;;9.50;56.90;;;;;;4983072;28;19949;-94
2022/01/31 03:31:19;;;;;;;;;;;9.40;57.10;;;;;;4981195;28;19914;-93
2022/01/31 03:33:45;;;;;;;;;;;9.30;57.80;;;;;;4999934;28;19963;-94
2022/01/31 03:36:11;;;;;;;;;;;9.20;58.10;;;;;;4999841;28;19977;-94
2022/01/31 03:38:40;;;;;;;;;;;9.00;58.40;;;;;;4982598;28;20378;-94
2022/01/31 03:41:10;;;;;;;;;;;9.00;58.60;;;;;;4982222;28;20298;-93
2022/01/31 03:43:35;;;;;;;;;;;8.90;58.80;;;;;;4981840;28;20001;-95
2022/01/31 03:46:01;;;;;;;;;;;8.80;58.90;;;;;;4982167;28;20019;-94
2022/01/31 03:48:28;;;;;;;;;;;8.80;59.10;;;;;;4982451;28;19922;-93
2022/01/31 03:50:54;;;;;;;;;;;8.60;59.10;;;;;;4983019;28;19918;-94
2022/01/31 03:53:20;;;;;;;;;;;8.40;58.50;;;;;;5000745;28;19941;-94
2022/01/31 03:55:45;;;;;;;;;;;8.30;58.60;;;;;;4982016;28;19961;-94
2022/01/31 03:58:11;;;;;;;;;;;8.20;58.80;;;;;;4982584;28;19921;-94
2022/01/31 04:00:36;;;;;;;;;;;8.00;59.20;;;;;;4981882;28;19922;-93
2022/01/31 04:03:02;;;;;;;;;;;7.90;59.50;;;;;;4981246;28;19929;-94
2022/01/31 04:05:27;;;;;;;;;;;7.90;59.60;;;;;;4982512;28;20507;-94
2022/01/31 04:07:52;;;;;;;;;;;7.80;59.40;;;;;;4984029;28;19918;-93
2022/01/31 04:10:18;;;;;;;;;;;7.70;59.50;;;;;;4986559;28;19929;-94
2022/01/31 04:12:44;;;;;;;;;;;7.60;59.60;;;;;;4986620;28;19918;-94
2022/01/31 04:15:10;;;;;;;;;;;7.50;59.70;;;;;;4987331;28;19910;-94
2022/01/31 04:17:37;;;;;;;;;;;7.30;59.90;;;;;;4985614;28;19924;-94
2022/01/31 04:20:03;;;;;;;;;;;7.30;60.00;;;;;;4985686;28;20001;-94
2022/01/31 04:22:32;;;;;;;;;;;7.20;60.30;;;;;;4986022;28;19918;-94
2022/01/31 04:25:02;;;;;;;;;;;7.10;60.40;;;;;;4986019;28;19917;-94
2022/01/31 04:27:32;;;;;;;;;;;7.00;60.60;;;;;;4984862;28;19948;-94
2022/01/31 04:29:57;;;;;;;;;;;7.00;60.70;;;;;;4987036;28;20397;-94
2022/01/31 04:32:23;;;;;;;;;;;7.00;60.90;;;;;;4987081;28;19914;-94
2022/01/31 04:34:48;;;;;;;;;;;6.90;61.00;;;;;;4986963;28;19949;-95
2022/01/31 04:37:14;;;;;;;;;;;6.80;61.10;;;;;;4986259;28;19917;-95
2022/01/31 04:39:40;;;;;;;;;;;6.90;61.20;;;;;;4986362;28;19925;-95
2022/01/31 04:42:06;;;;;;;;;;;6.80;61.30;;;;;;4986594;28;20281;-95
2022/01/31 04:44:31;;;;;;;;;;;6.80;61.40;;;;;;4987731;28;20012;-95
2022/01/31 04:46:57;;;;;;;;;;;6.80;61.50;;;;;;4986689;28;19924;-94
2022/01/31 04:49:22;;;;;;;;;;;6.80;61.60;;;;;;4987649;28;19925;-96
2022/01/31 04:51:48;;;;;;;;;;;6.80;61.70;;;;;;4987458;28;19918;-95
2022/01/31 04:54:13;;;;;;;;;;;6.80;61.70;;;;;;4987560;28;19925;-96
2022/01/31 04:56:41;;;;;;;;;;;6.80;61.70;;;;;;5005531;28;20273;-95
2022/01/31 04:59:08;;;;;;;;;;;6.80;61.90;;;;;;4993278;28;19928;-96
2022/01/31 05:01:34;;;;;;;;;;;6.80;61.90;;;;;;5005465;28;19918;-96
2022/01/31 05:03:59;;;;;;;;;;;6.80;62.10;;;;;;4987645;28;19925;-96
2022/01/31 05:06:35;;;;;;;;;;;6.80;62.00;;;;;;4996169;28;20345;-96
2022/01/31 05:09:01;;;;;;;;;;;6.90;62.00;;;;;;5004665;28;19906;-95
2022/01/31 05:11:26;;;;;;;;;;;6.90;62.00;;;;;;5003544;28;20329;-96
2022/01/31 05:13:52;;;;;;;;;;;7.00;62.00;;;;;;4986731;28;19924;-96
2022/01/31 05:16:17;;;;;;;;;;;7.00;61.90;;;;;;4987142;28;20290;-96
2022/01/31 05:18:44;;;;;;;;;;;7.00;61.90;;;;;;4987728;28;20374;-96
2022/01/31 05:21:11;;;;;;;;;;;7.10;61.90;;;;;;4988584;28;19914;-94
2022/01/31 05:23:37;;;;;;;;;;;7.10;61.80;;;;;;4971249;28;19922;-96
2022/01/31 05:26:03;;;;;;;;;;;7.20;61.70;;;;;;4989487;28;19970;-96
2022/01/31 05:28:28;;;;;;;;;;;7.20;61.60;;;;;;4988407;28;19926;-95
2022/01/31 05:30:54;;;;;;;;;;;7.20;61.70;;;;;;4988285;28;19914;-94
2022/01/31 05:33:19;;;;;;;;;;;7.20;61.50;;;;;;4987814;28;19914;-95
2022/01/31 05:35:45;;;;;;;;;;;7.30;61.70;;;;;;5005070;28;19913;-95
2022/01/31 05:38:11;;;;;;;;;;;7.30;61.50;;;;;;5002929;28;19945;-95
2022/01/31 05:40:37;;;;;;;;;;;7.30;61.40;;;;;;4987494;28;19945;-94
2022/01/31 05:43:02;;;;;;;;;;;7.40;61.50;;;;;;4988035;28;19982;-95
2022/01/31 05:45:28;;;;;;;;;;;7.40;61.50;;;;;;4987737;28;19914;-95
2022/01/31 05:47:53;;;;;;;;;;;7.40;61.60;;;;;;4985671;28;19918;-95
2022/01/31 05:50:19;;;;;;;;;;;7.50;61.50;;;;;;4985596;28;19980;-96
2022/01/31 05:52:45;;;;;;;;;;;7.50;61.50;;;;;;4985896;28;19961;-94
2022/01/31 05:55:10;;;;;;;;;;;7.50;61.50;;;;;;4986021;28;19949;-96
2022/01/31 05:57:36;;;;;;;;;;;7.60;61.40;;;;;;4987987;28;19918;-96
2022/01/31 06:00:03;;;;;;;;;;;7.60;61.20;;;;;;5000343;28;20012;-94
2022/01/31 06:02:29;;;;;;;;;;;7.70;61.00;;;;;;4983880;28;19921;-96
2022/01/31 06:04:54;;;;;;;;;;;7.70;61.00;;;;;;4995791;28;19928;-95
2022/01/31 06:07:20;;;;;;;;;;;7.70;61.20;;;;;;4981937;28;19914;-96
2022/01/31 06:09:45;;;;;;;;;;;7.80;61.00;;;;;;4985455;28;19985;-96
2022/01/31 06:12:15;;;;;;;;;;;7.80;61.00;;;;;;5007410;28;19996;-94
2022/01/31 06:14:43;;;;;;;;;;;7.80;61.10;;;;;;5005872;28;19918;-96
2022/01/31 06:17:09;;;;;;;;;;;7.90;61.00;;;;;;5002858;28;20394;-95
2022/01/31 06:19:34;;;;;;;;;;;8.00;61.00;;;;;;4994602;28;19949;-95
2022/01/31 06:22:00;;;;;;;;;;;8.00;61.00;;;;;;4983807;28;19914;-96
2022/01/31 06:24:26;;;;;;;;;;;8.10;60.90;;;;;;5003922;28;19914;-96
2022/01/31 06:26:51;;;;;;;;;;;8.20;60.80;;;;;;4987055;28;19920;-94
2022/01/31 06:29:19;;;;;;;;;;;8.20;60.80;;;;;;5004429;28;19922;-96
2022/01/31 06:31:44;;;;;;;;;;;8.30;60.90;;;;;;4985790;28;20317;-96
2022/01/31 06:34:10;;;;;;;;;;;8.40;60.70;;;;;;5004094;28;19941;-94
2022/01/31 06:36:35;;;;;;;;;;;8.40;60.70;;;;;;5004961;28;19924;-96
2022/01/31 06:39:01;;;;;;;;;;;8.40;60.70;;;;;;4985273;28;19922;-96
2022/01/31 06:41:28;;;;;;;;;;;8.50;60.80;;;;;;4992106;28;19924;-96
2022/01/31 06:43:54;;;;;;;;;;;8.60;60.80;;;;;;4989063;28;19917;-95
2022/01/31 06:46:21;;;;;;;;;;;8.70;60.90;;;;;;4986987;28;20008;-95
2022/01/31 06:48:47;;;;;;;;;;;8.70;60.80;;;;;;4986656;28;19914;-96
2022/01/31 06:51:13;;;;;;;;;;;8.80;61.10;;;;;;4987357;28;19925;-95
2022/01/31 06:53:38;;;;;;;;;;;8.90;61.10;;;;;;4978499;28;19985;-95
2022/01/31 06:56:04;;;;;;;;;;;9.00;61.40;;;;;;5002576;28;19920;-93
2022/01/31 06:58:30;;;;;;;;;;;9.10;61.50;;;;;;4984480;28;19918;-94
2022/01/31 07:00:57;;;;;;;;;;;9.20;61.60;;;;;;4999024;28;19913;-94
2022/01/31 07:03:23;;;;;;;;;;;9.30;61.50;;;;;;4997761;28;19961;-94
2022/01/31 07:05:49;;;;;;;;;;;9.30;61.30;;;;;;5003031;28;19909;-94
2022/01/31 07:08:16;;;;;;;;;;;9.30;61.20;;;;;;5002643;28;20048;-94
2022/01/31 07:10:50;;;;;;;;;;;9.40;61.40;;;;;;4975256;28;19930;-93
2022/01/31 07:13:25;;;;;;;;;;;9.40;61.70;;;;;;4998938;28;19918;-95
2022/01/31 07:15:51;;;;;;;;;;;9.50;61.70;;;;;;4983483;28;19980;-95
2022/01/31 07:18:16;;;;;;;;;;;9.50;61.80;;;;;;4974841;28;19918;-94
2022/01/31 07:20:44;;;;;;;;;;;9.60;61.90;;;;;;4983543;28;20016;-94
2022/01/31 07:23:22;;;;;;;;;;;9.60;61.90;;;;;;4981797;28;20000;-94
2022/01/31 07:25:48;;;;;;;;;;;9.70;62.10;;;;;;4980025;28;19920;-95
2022/01/31 07:28:16;;;;;;;;;;;9.80;62.20;;;;;;4998664;28;19918;-94
2022/01/31 07:30:45;;;;;;;;;;;9.80;62.30;;;;;;4984516;28;20261;-93
2022/01/31 07:33:11;;;;;;;;;;;9.80;62.30;;;;;;5002495;28;19929;-94
2022/01/31 07:35:37;;;;;;;;;;;9.90;62.20;;;;;;5001023;28;19910;-94
2022/01/31 07:38:03;;;;;;;;;;;9.90;62.00;;;;;;4999147;28;19922;-89
2022/01/31 07:40:29;;;;;;;;;;;9.80;61.90;;;;;;4981193;28;19948;-89
2022/01/31 07:42:54;;;;;;;;;;;9.80;61.90;;;;;;4979299;28;19925;-90
2022/01/31 07:45:20;;;;;;;;;;;9.80;62.00;;;;;;4994123;28;20577;-89
2022/01/31 07:47:46;;;;;;;;;;;9.90;62.30;;;;;;4978189;28;20124;-90
2022/01/31 07:50:13;;;;;;;;;;;10.00;62.40;;;;;;4995927;28;19941;-90
2022/01/31 07:52:39;;;;;;;;;;;10.00;62.50;;;;;;4975789;28;19926;-89
2022/01/31 07:55:04;;;;;;;;;;;10.10;62.60;;;;;;4975531;28;19918;-89
2022/01/31 07:57:30;;;;;;;;;;;10.20;62.90;;;;;;4972293;28;19928;-89
2022/01/31 07:59:55;;;;;;;;;;;10.30;63.00;;;;;;4969093;28;19919;-89
2022/01/31 08:02:21;;;;;;;;;;;10.40;63.00;;;;;;4973760;28;19910;-89
2022/01/31 08:04:46;;;;;;;;;;;10.50;63.00;;;;;;4973946;28;19922;-89
2022/01/31 08:07:12;;;;;;;;;;;10.60;63.00;;;;;;4975117;28;19929;-89
2022/01/31 08:09:38;;;;;;;;;;;10.60;63.00;;;;;;4976538;28;19940;-90
2022/01/31 08:12:05;;;;;;;;;;;10.70;62.90;;;;;;4970969;28;19918;-90
2022/01/31 08:14:30;;;;;;;;;;;10.70;62.90;;;;;;4975511;28;20355;-89
2022/01/31 08:16:56;;;;;;;;;;;10.70;62.90;;;;;;4993927;28;19945;-89
2022/01/31 08:19:22;;;;;;;;;;;10.70;62.90;;;;;;4975201;28;19918;-90
2022/01/31 08:21:48;;;;;;;;;;;10.70;62.60;;;;;;4975772;28;19922;-90
2022/01/31 08:24:14;;;;;;;;;;;10.80;62.70;;;;;;4976523;28;19972;-90
2022/01/31 08:26:39;;;;;;;;;;;10.70;62.60;;;;;;4993295;28;19910;-89
2022/01/31 08:29:18;;;;;;;;;;;10.70;62.40;;;;;;4990198;28;19921;-90
2022/01/31 08:31:46;;;;;;;;;;;10.70;62.40;;;;;;4989102;28;19932;-89
2022/01/31 08:36:42;;;;;;;;;;;10.70;62.80;;;;;;4994272;28;20361;-89
2022/01/31 08:39:22;;;;;;;;;;;10.80;62.80;;;;;;4976618;28;19919;-90
2022/01/31 08:41:49;;;;;;;;;;;10.80;62.80;;;;;;4982939;28;20312;-90
2022/01/31 08:44:17;;;;;;;;;;;10.80;62.90;;;;;;4972466;28;19977;-89
2022/01/31 08:46:44;;;;;;;;;;;10.80;62.90;;;;;;4975818;28;20001;-89
2022/01/31 08:49:10;;;;;;;;;;;10.80;62.90;;;;;;4968704;28;20353;-89
2022/01/31 08:51:35;;;;;;;;;;;10.90;62.90;;;;;;4986940;28;20005;-89
2022/01/31 08:54:02;;;;;;;;;;;10.90;62.90;;;;;;4990213;28;19918;-89
2022/01/31 08:56:27;;;;;;;;;;;11.00;62.90;;;;;;4977252;28;19914;-90
2022/01/31 08:58:53;;;;;;;;;;;11.00;63.10;;;;;;4979082;28;20000;-89
2022/01/31 09:01:21;;;;;;;;;;;11.00;63.20;;;;;;4994996;28;20292;-89
2022/01/31 09:06:19;;;;;;;;;;;11.00;62.90;;;;;;4997462;28;19921;-88
2022/01/31 09:08:45;;;;;;;;;;;11.00;62.70;;;;;;4996721;28;20290;-89
2022/01/31 09:11:11;;;;;;;;;;;11.10;62.70;;;;;;4996570;28;19918;-88
2022/01/31 09:13:37;;;;;;;;;;;11.10;62.80;;;;;;4975777;28;19922;-90
2022/01/31 09:16:02;;;;;;;;;;;11.10;62.80;;;;;;4978394;28;19917;-89
2022/01/31 09:18:28;;;;;;;;;;;11.10;62.90;;;;;;4978208;28;20053;-90
2022/01/31 09:20:54;;;;;;;;;;;11.10;63.10;;;;;;4977913;28;20369;-89
2022/01/31 09:23:19;;;;;;;;;;;11.20;63.10;;;;;;4989557;28;19925;-89
2022/01/31 09:25:46;;;;;;;;;;;11.20;63.20;;;;;;4974534;28;19914;-89
2022/01/31 09:28:12;;;;;;;;;;;11.30;63.20;;;;;;4978288;28;19918;-89
2022/01/31 09:30:38;;;;;;;;;;;11.30;63.20;;;;;;4978103;28;20453;-89
2022/01/31 09:33:05;;;;;;;;;;;11.40;63.10;;;;;;4968389;28;19922;-90
2022/01/31 09:35:30;;;;;;;;;;;11.40;63.30;;;;;;4994511;28;20313;-89
2022/01/31 09:37:56;;;;;;;;;;;11.50;63.40;;;;;;4995498;28;19922;-89
2022/01/31 09:40:23;;;;;;;;;;;11.60;63.60;;;;;;4975687;28;20396;-89
2022/01/31 09:43:03;;;;;;;;;;;11.70;63.50;;;;;;4976795;28;20369;-89
2022/01/31 09:45:54;;;;;;;;;;;11.70;63.40;;;;;;4995664;28;20000;-89
2022/01/31 09:48:33;;;;;;;;;;;11.80;63.10;;;;;;4993683;28;20366;-89
2022/01/31 09:51:00;;;;;;;;;;;11.80;63.30;;;;;;4992894;28;19914;-89
2022/01/31 09:53:26;;;;;;;;;;;11.90;63.20;;;;;;4977410;28;19918;-89
2022/01/31 09:55:53;;;;;;;;;;;12.00;63.10;;;;;;4978178;28;20012;-90
2022/01/31 09:58:19;;;;;;;;;;;12.10;63.20;;;;;;4979719;28;20319;-89
2022/01/31 10:00:44;;;;;;;;;;;12.10;63.10;;;;;;4977483;28;19922;-89
2022/01/31 10:03:10;;;;;;;;;;;12.20;62.90;;;;;;4977377;28;19921;-89
2022/01/31 10:05:36;;;;;;;;;;;12.20;62.70;;;;;;4995775;28;20032;-89
2022/01/31 10:08:12;;;;;;;;;;;12.20;62.60;;;;;;4977329;28;20258;-90
2022/01/31 10:10:40;;;;;;;;;;;12.20;62.60;;;;;;4976408;28;20162;-89
2022/01/31 10:16:27;;;;;;;;;;;12.30;62.80;;;;;;4986346;28;19979;-88
2022/01/31 10:18:58;;;;;;;;;;;12.30;62.90;;;;;;4975584;28;19913;-88
2022/01/31 10:21:25;;;;;;;;;;;12.30;62.80;;;;;;4977727;28;19944;-88
2022/01/31 10:23:50;;;;;;;;;;;12.40;62.80;;;;;;4975424;28;19968;-89
2022/01/31 10:26:26;;;;;;;;;;;12.40;62.70;;;;;;4994781;28;19918;-89
2022/01/31 10:28:51;;;;;;;;;;;12.50;62.90;;;;;;4975977;28;19914;-89
2022/01/31 10:31:17;;;;;;;;;;;12.60;62.80;;;;;;4990575;28;19925;-89
2022/01/31 10:34:02;;;;;;;;;;;12.70;62.90;;;;;;4975779;28;19956;-89
2022/01/31 10:36:31;;;;;;;;;;;12.70;63.10;;;;;;4969813;28;20058;-89
2022/01/31 10:39:13;;;;;;;;;;;12.80;62.70;;;;;;4974951;28;19914;-89
2022/01/31 10:44:57;;;;;;;;;;;12.90;62.60;;;;;;4991846;28;19969;-89
2022/01/31 10:53:10;;;;;;;;;;;13.30;63.00;;;;;;4992435;28;19967;-89
2022/01/31 10:55:36;;;;;;;;;;;13.30;62.90;;;;;;4995475;28;20307;-89
2022/01/31 10:58:05;;;;;;;;;;;13.50;63.00;;;;;;4975841;28;19997;-88
2022/01/31 11:00:34;;;;;;;;;;;13.60;62.90;;;;;;4992911;28;20250;-89
2022/01/31 11:03:19;;;;;;;;;;;13.70;62.50;;;;;;4992999;28;19910;-89
2022/01/31 11:05:49;;;;;;;;;;;13.70;62.20;;;;;;4960842;28;20781;-87
2022/01/31 11:08:15;;;;;;;;;;;13.80;62.40;;;;;;4978268;28;19916;-87
2022/01/31 11:10:40;;;;;;;;;;;13.80;62.60;;;;;;4978301;28;19922;-88
2022/01/31 11:13:06;;;;;;;;;;;14.00;62.60;;;;;;4998534;28;19910;-87
2022/01/31 11:15:32;;;;;;;;;;;14.10;62.70;;;;;;4996667;28;19918;-88
2022/01/31 11:17:59;;;;;;;;;;;14.30;62.70;;;;;;4991753;28;20065;-88
2022/01/31 11:20:24;;;;;;;;;;;14.40;62.80;;;;;;4988270;28;20646;-88
2022/01/31 11:22:57;;;;;;;;;;;14.50;62.30;;;;;;4998394;28;19952;-88
2022/01/31 11:25:26;;;;;;;;;;;14.60;62.40;;;;;;4993776;28;20315;-88
2022/01/31 11:27:59;;;;;;;;;;;14.70;62.10;;;;;;4974859;28;19914;-88
2022/01/31 11:30:24;;;;;;;;;;;14.70;61.70;;;;;;4973662;28;19945;-88
2022/01/31 11:32:50;;;;;;;;;;;14.60;61.50;;;;;;4988724;28;19914;-88
2022/01/31 11:35:16;;;;;;;;;;;14.50;61.50;;;;;;4973722;28;19918;-88
2022/01/31 11:37:41;;;;;;;;;;;14.40;61.60;;;;;;4991500;28;19914;-88
2022/01/31 11:40:09;;;;;;;;;;;14.50;62.10;;;;;;4991456;28;20293;-88
2022/01/31 11:42:35;;;;;;;;;;;14.60;62.30;;;;;;4986494;28;19914;-88
2022/01/31 11:45:09;;;;;;;;;;;14.70;62.10;;;;;;4983775;28;19924;-88
2022/01/31 11:47:36;;;;;;;;;;;14.70;61.80;;;;;;4988919;28;20008;-88
2022/01/31 11:50:04;;;;;;;;;;;14.70;61.40;;;;;;4993193;28;19929;-89
2022/01/31 11:52:33;;;;;;;;;;;14.60;61.40;;;;;;4977067;28;19921;-88
2022/01/31 11:55:04;;;;;;;;;;;14.60;61.80;;;;;;4975606;28;19976;-88
2022/01/31 11:57:31;;;;;;;;;;;14.60;61.70;;;;;;4991979;28;19921;-88
2022/01/31 12:00:23;;;;;;;;;;;14.70;61.70;;;;;;4982787;28;19925;-88
2022/01/31 12:02:49;;;;;;;;;;;14.60;61.60;;;;;;4971398;28;19918;-87
2022/01/31 12:05:18;;;;;;;;;;;14.60;61.80;;;;;;4973832;28;20329;-87
2022/01/31 12:07:45;;;;;;;;;;;14.60;61.90;;;;;;4996580;28;20337;-88
2022/01/31 12:10:10;;;;;;;;;;;14.50;62.20;;;;;;4975734;28;19920;-87
2022/01/31 12:15:38;;;;;;;;;;;14.30;62.10;;;;;;4986210;28;19929;-88
2022/01/31 12:24:02;;;;;;;;;;;14.10;62.20;;;;;;4989861;28;19921;-88
2022/01/31 12:26:34;;;;;;;;;;;14.00;61.80;;;;;;4974386;28;20354;-89
2022/01/31 12:29:02;;;;;;;;;;;14.00;61.80;;;;;;4987804;28;19972;-88
2022/01/31 12:31:29;;;;;;;;;;;13.90;61.90;;;;;;4995632;28;20036;-88
2022/01/31 12:33:55;;;;;;;;;;;13.80;61.50;;;;;;4977742;28;19910;-88
2022/01/31 12:36:35;;;;;;;;;;;13.70;61.20;;;;;;4979099;28;20317;-89
2022/01/31 12:39:24;;;;;;;;;;;13.70;61.10;;;;;;4978989;28;19960;-89
2022/01/31 12:41:58;;;;;;;;;;;13.60;61.30;;;;;;4976091;28;20027;-89
2022/01/31 12:44:35;;;;;;;;;;;13.50;61.30;;;;;;4995023;28;19964;-88
2022/01/31 12:47:17;;;;;;;;;;;13.40;61.10;;;;;;4977654;28;19929;-89
2022/01/31 12:49:43;;;;;;;;;;;13.40;61.70;;;;;;4978616;28;19921;-89
2022/01/31 12:52:10;;;;;;;;;;;13.40;61.60;;;;;;4976421;28;19953;-89
2022/01/31 12:54:36;;;;;;;;;;;13.40;61.80;;;;;;4994845;28;20012;-89
2022/01/31 12:57:04;;;;;;;;;;;13.40;62.10;;;;;;4978573;28;20352;-89
2022/01/31 12:59:30;;;;;;;;;;;13.50;62.60;;;;;;4977331;28;20458;-88
2022/01/31 13:01:58;;;;;;;;;;;13.60;63.00;;;;;;4978391;28;19934;-88
2022/01/31 13:04:27;;;;;;;;;;;13.70;62.20;;;;;;4977614;28;19981;-89
2022/01/31 13:06:53;;;;;;;;;;;13.70;61.70;;;;;;4986823;28;19922;-88
2022/01/31 13:09:23;;;;;;;;;;;13.70;61.50;;;;;;4995810;28;20440;-88
2022/01/31 13:11:50;;;;;;;;;;;13.70;61.80;;;;;;4996129;28;19953;-88
2022/01/31 13:14:18;;;;;;;;;;;13.80;62.40;;;;;;4977100;28;19957;-88
2022/01/31 13:16:58;;;;;;;;;;;13.90;62.20;;;;;;4971877;28;19922;-89
2022/01/31 13:19:25;;;;;;;;;;;14.00;62.40;;;;;;4977254;28;20373;-88
2022/01/31 13:21:51;;;;;;;;;;;14.00;62.00;;;;;;4977780;28;20044;-89
2022/01/31 13:24:17;;;;;;;;;;;14.00;62.30;;;;;;4976247;28;19918;-89
2022/01/31 13:26:47;;;;;;;;;;;14.20;62.10;;;;;;4994693;28;20020;-89
2022/01/31 13:29:24;;;;;;;;;;;14.20;62.20;;;;;;4976092;28;19914;-89
2022/01/31 13:31:50;;;;;;;;;;;14.30;61.00;;;;;;4991846;28;19922;-89
2022/01/31 13:34:31;;;;;;;;;;;14.30;61.40;;;;;;4973803;28;20441;-88
2022/01/31 13:36:56;;;;;;;;;;;14.30;60.90;;;;;;4978879;28;19922;-87
2022/01/31 13:39:23;;;;;;;;;;;14.20;60.70;;;;;;4992633;28;20021;-88
2022/01/31 13:41:48;;;;;;;;;;;14.20;60.10;;;;;;4976164;28;19932;-88
2022/01/31 13:44:13;;;;;;;;;;;14.20;61.10;;;;;;4976139;28;19914;-88
2022/01/31 13:46:48;;;;;;;;;;;14.20;61.20;;;;;;4975103;28;19926;-87
2022/01/31 13:49:18;;;;;;;;;;;14.20;61.50;;;;;;4976201;28;19929;-88
2022/01/31 13:51:47;;;;;;;;;;;14.20;61.60;;;;;;4994666;28;19922;-88
2022/01/31 13:54:15;;;;;;;;;;;14.20;61.60;;;;;;4993302;28;19921;-87
2022/01/31 13:56:50;;;;;;;;;;;14.30;61.50;;;;;;4975938;28;19977;-88
2022/01/31 13:59:16;;;;;;;;;;;14.20;61.70;;;;;;4976427;28;20281;-87
2022/01/31 14:01:44;;;;;;;;;;;14.30;61.80;;;;;;5001365;28;20354;-87
2022/01/31 14:04:15;;;;;;;;;;;14.30;61.80;;;;;;4980635;28;19918;-88
2022/01/31 14:06:41;;;;;;;;;;;14.30;61.90;;;;;;4976009;28;19933;-88
2022/01/31 14:09:07;;;;;;;;;;;14.30;61.70;;;;;;4993874;28;20285;-88
2022/01/31 14:11:38;;;;;;;;;;;14.30;61.90;;;;;;4993248;28;20020;-88
2022/01/31 14:14:03;;;;;;;;;;;14.30;62.00;;;;;;4993461;28;20306;-87
2022/01/31 14:16:30;;;;;;;;;;;14.30;61.50;;;;;;4976703;28;19957;-87
2022/01/31 14:19:01;;;;;;;;;;;14.30;61.50;;;;;;4992402;28;19914;-87
2022/01/31 14:21:27;;;;;;;;;;;14.30;62.00;;;;;;4966139;28;19929;-87
2022/01/31 14:23:53;;;;;;;;;;;14.30;62.00;;;;;;4994491;28;19937;-86
2022/01/31 14:26:21;;;;;;;;;;;14.30;61.80;;;;;;4977891;28;19910;-87
2022/01/31 14:28:49;;;;;;;;;;;14.20;61.80;;;;;;4995192;28;20049;-89
2022/01/31 14:31:15;;;;;;;;;;;14.20;61.90;;;;;;4994701;28;20251;-89
2022/01/31 14:33:42;;;;;;;;;;;14.20;62.00;;;;;;4976995;28;20366;-88
2022/01/31 14:36:08;;;;;;;;;;;14.30;62.20;;;;;;4973904;28;19993;-89
2022/01/31 14:38:47;;;;;;;;;;;14.30;62.40;;;;;;4987345;28;20281;-88
2022/01/31 14:49:11;;;;;;;;;;;14.20;62.20;;;;;;4990492;28;19945;-88
2022/01/31 14:51:38;;;;;;;;;;;14.30;62.20;;;;;;4990414;28;19914;-88
2022/01/31 14:54:05;;;;;;;;;;;14.30;62.20;;;;;;4976044;28;20008;-87
2022/01/31 14:56:31;;;;;;;;;;;14.30;62.30;;;;;;4976282;28;19981;-87
2022/01/31 14:58:57;;;;;;;;;;;14.30;61.90;;;;;;4976653;28;20293;-88